KGUP Airport (Gallup Muni) Information

FAA: GUP - ICAO: KGUP

KGUP Airport Location

State New Mexico
County Mc Kinley
City Gallup
KGUP Airport is 3 miles southwest of Gallup, NM.
Latitude 35-30-39.8100N
Longitude 108-47-21.5140W
Elevation 6,472ft

KGUP Airport METARs

METAR KGUP 180653Z AUTO 00000KT 10SM CLR 07/01 A3012 RMK AO2 SLP095 T00670006 402221033
Altimeter 30.12"
Temperature 6.7°C (44.1°F)
Wind 0° at 0KT
Clouds Skies are clear.
Visibility 10.0mi
Time observed: 2021-10-18T06:53:00Z

KGUP Airport Details

Status Operational
Activation N/A
Ownership Public
Usage Public
Chart ALBUQUERQUE
ATC on-site No
Beacon schedule sunset-sunrise
Beacon color clear green

KGUP Airport Contacts

Owner CITY OF GALLUP
Owner address BOX 1270, GALLUP, NM 87305
Owner phone 505-863-1254
Manager PRISCILLA LEE
Manager address PO BOX 4620, WINDOW ROCK, AZ 86515
Manager phone (505) 371-8342

KGUP Airport (Gallup Muni) Radio Frequencies

KGUP (Airport) Radio Frequencies

UNICOM 122.95
Common traffic advisory frequency (CTAF) 122.95